Time;durP1;ratioP1;P1;durP2;ratioP2;P2;SDS_P1;SDS_P2;PMS_P1;PMS_P2;Temp;Humidity;BMP_temperature;BMP_pressure;BME280_temperature;BME280_humidity;BME280_pressure;Samples;Min_cycle;Max_cycle;Signal;HPM_P1;HPM_P2
2021/06/02 02:45:05;;;;;;;16.30;9.20;;;;;;;14.37;71.59;101056.58;5060789;56;1140676;-80
2021/06/02 02:50:34;;;;;;;19.42;10.05;;;;;;;14.36;71.94;101060.21;5060596;57;1140498;-82
2021/06/02 02:55:41;;;;;;;16.17;9.30;;;;;;;14.37;72.07;101069.05;5060418;57;1143060;-78
2021/06/02 03:01:07;;;;;;;13.53;9.77;;;;;;;14.35;72.70;101077.19;5060713;57;1140652;-83
2021/06/02 03:06:26;;;;;;;20.40;11.38;;;;;;;14.32;72.54;101082.76;5060713;57;1140740;-80
2021/06/02 03:11:37;;;;;;;19.47;9.47;;;;;;;14.29;72.72;101086.16;5060559;57;1142914;-82
2021/06/02 03:16:59;;;;;;;13.83;8.60;;;;;;;14.26;72.95;101089.91;5060518;57;1141079;-79
2021/06/02 03:22:15;;;;;;;22.00;10.07;;;;;;;14.29;73.12;101103.45;5059663;57;1140972;-85
2021/06/02 03:27:38;;;;;;;13.58;9.05;;;;;;;14.28;73.17;101105.27;5060006;57;1143521;-82
2021/06/02 03:33:20;;;;;;;13.57;8.40;;;;;;;14.27;73.55;101109.38;5061128;57;1141193;-78
2021/06/02 03:38:33;;;;;;;14.33;9.10;;;;;;;14.24;73.59;101114.47;5061817;57;1141296;-82
2021/06/02 03:43:52;;;;;;;15.93;9.03;;;;;;;14.25;73.70;101117.97;5061238;57;1141443;-81
2021/06/02 03:49:19;;;;;;;17.73;9.13;;;;;;;14.25;73.78;101113.98;5061620;57;1141301;-77
2021/06/02 03:55:06;;;;;;;12.47;7.42;;;;;;;14.27;73.87;101124.02;5058625;57;1141257;-77
2021/06/02 04:00:21;;;;;;;16.50;7.17;;;;;;;14.29;74.12;101131.39;5061872;57;1140554;-80
2021/06/02 04:05:54;;;;;;;10.70;7.20;;;;;;;14.32;74.37;101136.46;5061761;57;1140657;-80
2021/06/02 04:11:14;;;;;;;13.93;7.27;;;;;;;14.33;74.71;101140.81;5061600;57;1140722;-81
2021/06/02 04:16:32;;;;;;;16.33;6.70;;;;;;;14.34;74.41;101147.83;5061977;57;1141695;-79
2021/06/02 04:21:41;;;;;;;10.70;6.50;;;;;;;14.37;74.42;101152.38;5061570;57;1140996;-82
2021/06/02 04:26:49;;;;;;;9.83;6.63;;;;;;;14.44;74.37;101155.42;5061162;57;1141204;-78
2021/06/02 04:32:06;;;;;;;10.77;6.27;;;;;;;14.48;74.55;101162.19;5064328;56;1139346;-78
2021/06/02 04:37:13;;;;;;;7.93;5.57;;;;;;;14.50;74.39;101165.56;4993855;57;1141100;-76
2021/06/02 04:42:21;;;;;;;9.30;5.67;;;;;;;14.55;74.27;101170.00;5032791;56;1138509;-80
2021/06/02 04:47:27;;;;;;;13.73;6.50;;;;;;;14.60;74.16;101179.78;5107845;56;1138536;-80
2021/06/02 04:52:44;;;;;;;7.70;6.50;;;;;;;14.67;74.29;101176.95;5112373;56;1141053;-76
2021/06/02 04:58:36;;;;;;;14.43;6.47;;;;;;;14.73;74.33;101186.25;5084029;57;1139020;-81
2021/06/02 05:04:05;;;;;;;10.90;5.57;;;;;;;14.80;74.04;101187.44;5037798;56;1141097;-84
2021/06/02 05:09:31;;;;;;;5.87;4.47;;;;;;;14.89;73.85;101191.12;5019398;57;1141345;-82
2021/06/02 05:15:01;;;;;;;7.73;5.77;;;;;;;14.97;73.71;101192.66;5039366;56;1138969;-84
2021/06/02 05:26:26;;;;;;;7.03;4.30;;;;;;;15.08;72.94;101200.09;5108778;56;1139040;-77
2021/06/02 05:32:21;;;;;;;9.43;5.37;;;;;;;15.20;72.72;101208.84;5036843;56;1138389;-77
2021/06/02 05:38:03;;;;;;;5.83;4.77;;;;;;;15.26;72.49;101211.48;5018068;57;1139290;-80
2021/06/02 05:43:36;;;;;;;10.13;4.40;;;;;;;15.35;72.09;101220.84;5103877;56;1138391;-77
2021/06/02 05:49:05;;;;;;;6.43;4.83;;;;;;;15.51;71.77;101229.69;5126640;56;1141003;-80
2021/06/02 05:54:58;;;;;;;8.30;4.73;;;;;;;15.66;71.45;101228.88;5033052;56;1138955;-80
2021/06/02 06:00:30;;;;;;;9.65;5.28;;;;;;;15.77;71.01;101236.77;4984969;57;1139264;-84
2021/06/02 06:05:58;;;;;;;7.37;4.70;;;;;;;15.83;70.06;101241.08;5018988;57;1138694;-80
2021/06/02 06:11:53;;;;;;;14.47;5.13;;;;;;;15.89;69.58;101239.67;5081020;57;1138966;-80
2021/06/02 06:17:34;;;;;;;10.85;5.92;;;;;;;15.92;69.71;101249.23;5081927;56;1140685;-77
2021/06/02 06:23:14;;;;;;;11.67;5.63;;;;;;;15.94;69.27;101242.80;5080971;56;1140602;-86
2021/06/02 06:28:36;;;;;;;14.43;6.83;;;;;;;15.97;69.75;101244.34;4934932;57;1140767;-76
2021/06/02 06:33:45;;;;;;;11.67;5.57;;;;;;;16.02;69.75;101251.47;4934582;57;1140904;-76
2021/06/02 06:39:34;;;;;;;13.00;6.07;;;;;;;16.09;68.61;101256.11;4934256;57;1140624;-77
2021/06/02 06:44:46;;;;;;;12.43;5.50;;;;;;;16.17;69.34;101254.95;5005781;57;1141106;-82
2021/06/02 06:49:58;;;;;;;10.17;6.53;;;;;;;16.29;68.44;101258.83;4952579;58;1140978;-80
2021/06/02 06:55:07;;;;;;;9.10;6.17;;;;;;;16.41;68.21;101253.71;4983792;58;1141070;-80
2021/06/02 07:00:14;;;;;;;12.67;6.07;;;;;;;16.60;68.10;101256.41;4984374;58;1139058;-77
2021/06/02 07:05:23;;;;;;;12.10;6.15;;;;;;;16.77;67.55;101259.75;4992707;57;1141053;-81
2021/06/02 07:10:29;;;;;;;13.62;6.03;;;;;;;16.91;66.15;101259.81;4993518;58;1141185;-81
2021/06/02 07:15:36;;;;;;;9.77;6.57;;;;;;;17.03;65.66;101262.67;4907637;58;1140698;-79
2021/06/02 07:20:44;;;;;;;7.60;5.70;;;;;;;17.23;65.74;101261.67;4971634;58;1138560;-86
2021/06/02 07:25:50;;;;;;;10.60;5.67;;;;;;;17.45;64.57;101264.48;4957456;58;1138476;-78
2021/06/02 07:30:55;;;;;;;10.13;7.23;;;;;;;17.55;63.63;101273.34;4872040;58;1140521;-74
2021/06/02 07:36:01;;;;;;;9.30;6.50;;;;;;;17.63;63.69;101270.41;4881909;58;1140650;-80
2021/06/02 07:41:08;;;;;;;12.73;6.70;;;;;;;17.71;63.73;101280.78;4972947;57;1138549;-88
2021/06/02 07:46:14;;;;;;;14.87;6.37;;;;;;;17.80;63.12;101276.37;4940100;58;1140790;-83
2021/06/02 07:51:20;;;;;;;8.63;6.20;;;;;;;17.89;61.24;101282.16;4962159;57;1141100;-78
2021/06/02 07:56:26;;;;;;;9.23;5.95;;;;;;;17.91;59.44;101286.38;4921169;58;1138865;-80
2021/06/02 08:01:32;;;;;;;14.53;6.17;;;;;;;17.98;59.16;101287.14;4891484;58;1138818;-82
2021/06/02 08:06:39;;;;;;;11.47;6.33;;;;;;;18.01;59.65;101293.05;4915543;58;1140761;-82
2021/06/02 08:11:47;;;;;;;15.80;6.50;;;;;;;18.06;59.85;101298.77;4969166;58;1140734;-80
2021/06/02 08:16:53;;;;;;;9.47;6.73;;;;;;;18.10;57.58;101309.55;4970135;58;1140681;-82
2021/06/02 08:22:00;;;;;;;9.90;6.10;;;;;;;18.13;58.92;101318.63;4970725;58;1138773;-78
2021/06/02 08:27:12;;;;;;;10.20;4.53;;;;;;;18.21;59.52;101331.25;4971233;58;1138582;-74
2021/06/02 08:32:19;;;;;;;11.12;4.74;;;;;;;18.27;57.29;101330.67;4971253;58;1141019;-79
2021/06/02 08:37:25;;;;;;;5.08;4.17;;;;;;;18.32;56.39;101331.08;4970975;58;1141039;-81
2021/06/02 08:42:31;;;;;;;7.87;3.83;;;;;;;18.39;56.84;101321.93;4929379;58;1139153;-77
2021/06/02 08:47:37;;;;;;;9.23;3.83;;;;;;;18.49;55.89;101326.22;4905454;58;1139017;-77
2021/06/02 08:52:45;;;;;;;9.40;3.57;;;;;;;18.60;55.52;101331.42;4942129;58;1138808;-77
2021/06/02 08:57:54;;;;;;;4.87;3.27;;;;;;;18.73;54.58;101336.41;4993187;58;1138983;-81
2021/06/02 09:03:00;;;;;;;10.98;4.03;;;;;;;18.87;54.50;101335.03;4993736;58;1138956;-81
2021/06/02 09:08:09;;;;;;;11.90;4.70;;;;;;;19.02;53.71;101334.00;5143235;56;1140939;-80
2021/06/02 09:13:25;;;;;;;6.87;4.12;;;;;;;19.18;51.12;101339.51;5113806;56;1141062;-79
2021/06/02 09:18:31;;;;;;;6.55;4.12;;;;;;;19.31;51.15;101339.95;5120398;55;1139030;-80
2021/06/02 09:23:44;;;;;;;7.98;4.08;;;;;;;19.44;50.60;101332.33;5093480;56;1139426;-76
2021/06/02 09:29:11;;;;;;;9.03;3.67;;;;;;;19.59;49.65;101339.34;5094706;56;1139160;-79
2021/06/02 09:34:27;;;;;;;8.05;3.95;;;;;;;19.73;49.13;101344.63;5084663;56;1139222;-77
2021/06/02 09:39:43;;;;;;;11.45;3.98;;;;;;;19.91;48.84;101349.44;5121859;56;1139164;-75
2021/06/02 09:45:14;;;;;;;13.98;3.22;;;;;;;20.09;48.89;101344.00;5121922;56;1141207;-81
2021/06/02 09:50:33;;;;;;;6.15;3.58;;;;;;;20.23;47.71;101348.27;5120595;56;1140984;-80
2021/06/02 09:55:41;;;;;;;4.33;3.60;;;;;;;20.47;45.13;101345.37;5143354;56;1138586;-75
2021/06/02 10:00:58;;;;;;;7.53;3.30;;;;;;;20.67;43.96;101346.25;5143183;56;1138635;-82
2021/06/02 10:06:09;;;;;;;3.20;2.47;;;;;;;21.10;44.60;101330.84;5133108;56;1138951;-80
2021/06/02 10:11:20;;;;;;;9.25;2.80;;;;;;;21.10;44.60;101330.84;5098742;56;1138834;-75
2021/06/02 10:16:45;;;;;;;6.47;2.85;;;;;;;21.35;40.70;101351.92;5101201;56;1138660;-73
2021/06/02 10:21:51;;;;;;;6.97;2.30;;;;;;;21.52;42.78;101350.06;5097249;56;1138718;-82
2021/06/02 10:26:58;;;;;;;7.33;3.30;;;;;;;21.75;43.16;101344.28;5098998;56;1138874;-83
2021/06/02 10:32:05;;;;;;;3.98;2.15;;;;;;;21.97;39.52;101342.73;5093805;56;1138668;-84
2021/06/02 10:37:15;;;;;;;5.53;2.92;;;;;;;22.14;41.07;101346.24;5084338;56;1138655;-85
2021/06/02 10:42:26;;;;;;;2.43;2.00;;;;;;;22.20;40.96;101353.10;5058795;57;1138875;-78
2021/06/02 10:47:32;;;;;;;15.80;3.97;;;;;;;22.29;40.69;101353.93;5084158;56;1138770;-78
2021/06/02 10:52:42;;;;;;;17.70;3.40;;;;;;;22.40;41.64;101349.48;5094060;56;1140827;-78
2021/06/02 10:58:20;;;;;;;7.20;2.22;;;;;;;22.53;39.07;101341.66;5113573;56;1141385;-80
2021/06/02 11:03:28;;;;;;;4.57;2.10;;;;;;;22.56;37.35;101337.78;5133246;56;1138609;-79
2021/06/02 11:08:54;;;;;;;6.42;2.20;;;;;;;22.60;38.26;101344.00;5133693;56;1138888;-82
2021/06/02 11:14:26;;;;;;;7.28;2.65;;;;;;;22.68;38.55;101339.05;5118007;56;1138908;-78
2021/06/02 11:19:36;;;;;;;7.40;2.50;;;;;;;22.56;37.16;101346.71;5131174;56;1138899;-81
2021/06/02 11:24:45;;;;;;;5.35;2.27;;;;;;;22.72;38.29;101340.38;5132861;56;1139448;-77
2021/06/02 11:29:58;;;;;;;6.62;3.72;;;;;;;22.89;38.15;101345.20;5133039;57;1139195;-79
2021/06/02 11:35:09;;;;;;;3.17;2.17;;;;;;;23.06;38.60;101334.63;5133589;56;1139012;-76
2021/06/02 11:40:15;;;;;;;8.28;2.92;;;;;;;23.36;39.42;101336.90;5133485;56;1139014;-78
2021/06/02 11:45:26;;;;;;;4.48;2.96;;;;;;;23.41;37.66;101342.06;5098353;56;1138894;-75
2021/06/02 11:50:30;;;;;;;4.50;2.67;;;;;;;23.22;37.43;101349.30;5094120;57;1138996;-80
2021/06/02 11:55:36;;;;;;;6.83;2.70;;;;;;;23.26;36.81;101353.33;5133479;56;1138553;-78
2021/06/02 12:00:43;;;;;;;4.20;3.05;;;;;;;23.34;38.27;101354.63;5074191;56;1138647;-82
2021/06/02 12:05:49;;;;;;;4.97;3.60;;;;;;;23.46;37.37;101346.41;5059545;57;1138591;-83
2021/06/02 12:10:58;;;;;;;7.83;3.30;;;;;;;23.35;37.08;101356.31;5102878;56;1138712;-81
2021/06/02 12:16:09;;;;;;;4.78;3.22;;;;;;;23.22;38.18;101353.89;5119482;55;1138617;-80
2021/06/02 12:21:26;;;;;;;9.40;2.60;;;;;;;23.05;37.48;101360.77;4997508;56;1138561;-77
2021/06/02 12:26:42;;;;;;;3.42;2.47;;;;;;;22.86;37.16;101361.23;4994502;57;1138642;-79
2021/06/02 12:31:54;;;;;;;5.80;3.00;;;;;;;22.76;37.99;101357.39;5095692;56;1138406;-75
2021/06/02 12:37:07;;;;;;;3.27;2.50;;;;;;;22.72;37.22;101354.71;5144500;56;1138332;-75
2021/06/02 12:42:12;;;;;;;4.40;2.37;;;;;;;22.73;38.55;101350.16;5143950;56;1138363;-80
2021/06/02 12:47:18;;;;;;;3.60;2.12;;;;;;;22.74;36.64;101354.53;5144032;56;1138534;-80
2021/06/02 12:52:25;;;;;;;14.67;3.50;;;;;;;22.68;36.11;101353.88;5144199;56;1139075;-82
2021/06/02 12:57:32;;;;;;;5.50;2.90;;;;;;;22.68;37.54;101356.58;5143735;56;1141332;-81
2021/06/02 13:02:38;;;;;;;15.25;2.55;;;;;;;22.77;37.33;101352.84;5145347;56;1138984;-79
2021/06/02 13:07:45;;;;;;;5.50;3.60;;;;;;;22.80;37.43;101356.02;5104660;56;1141204;-77
2021/06/02 13:12:54;;;;;;;3.62;2.60;;;;;;;22.79;37.46;101360.25;5098496;56;1139364;-77
2021/06/02 13:18:01;;;;;;;7.47;3.02;;;;;;;22.77;37.74;101353.68;5070266;56;1139128;-86
2021/06/02 13:23:17;;;;;;;7.37;2.85;;;;;;;22.81;38.57;101351.47;5125589;56;1138856;-82
2021/06/02 13:28:23;;;;;;;8.90;3.60;;;;;;;22.88;37.67;101357.84;5146023;56;1138962;-80
2021/06/02 13:33:46;;;;;;;4.10;2.47;;;;;;;22.90;38.65;101363.91;5144403;56;1139249;-76
2021/06/02 13:38:54;;;;;;;7.42;3.10;;;;;;;22.92;37.95;101364.54;5177907;56;1138973;-83
2021/06/02 13:44:00;;;;;;;13.32;3.30;;;;;;;22.87;37.86;101368.30;5174896;56;1139148;-75
2021/06/02 13:49:05;;;;;;;17.07;2.62;;;;;;;22.85;37.42;101366.29;5113081;56;1141158;-81
2021/06/02 13:54:31;;;;;;;9.10;2.87;;;;;;;22.82;37.98;101358.55;5146757;56;1140645;-83
2021/06/02 13:59:56;;;;;;;6.15;2.87;;;;;;;22.86;38.83;101368.48;5139002;56;1138742;-79
2021/06/02 14:05:03;;;;;;;10.48;2.87;;;;;;;22.93;38.72;101367.56;5134821;56;1138519;-81
2021/06/02 14:10:10;;;;;;;5.83;3.10;;;;;;;22.88;37.09;101370.49;5135551;56;1140654;-78
2021/06/02 14:15:16;;;;;;;9.15;3.05;;;;;;;22.80;38.19;101381.65;5135442;56;1138490;-81
2021/06/02 14:20:22;;;;;;;9.58;3.22;;;;;;;22.84;37.58;101372.70;5135520;56;1138444;-80
2021/06/02 14:25:28;;;;;;;3.42;2.62;;;;;;;22.90;37.41;101382.79;5135727;56;1138568;-77
2021/06/02 14:30:34;;;;;;;3.77;2.12;;;;;;;22.88;37.29;101376.73;5135840;56;1138403;-84
2021/06/02 14:35:39;;;;;;;7.22;3.80;;;;;;;22.86;37.50;101371.17;5135643;56;1138477;-79
2021/06/02 14:40:46;;;;;;;6.10;3.17;;;;;;;22.90;37.50;101378.74;5135507;56;1138450;-83
2021/06/02 14:45:52;;;;;;;5.33;3.08;;;;;;;22.92;36.91;101371.28;5135217;56;1138489;-77
2021/06/02 14:51:01;;;;;;;12.85;3.50;;;;;;;22.88;35.66;101369.14;5134936;56;1138413;-76
2021/06/02 14:56:07;;;;;;;6.22;2.50;;;;;;;22.85;37.23;101365.45;5134710;56;1140730;-76
2021/06/02 15:01:13;;;;;;;3.65;2.67;;;;;;;22.86;38.26;101368.48;5135235;56;1138420;-76
2021/06/02 15:06:20;;;;;;;3.74;2.40;;;;;;;22.85;37.91;101373.03;5163176;56;1138509;-77
2021/06/02 15:11:26;;;;;;;10.15;7.70;;;;;;;22.77;36.23;101372.56;5136746;56;1138520;-76
2021/06/02 15:16:34;;;;;;;7.83;2.47;;;;;;;22.77;36.60;101375.77;5144941;56;1150443;-76
2021/06/02 15:21:42;;;;;;;8.45;2.20;;;;;;;22.77;36.44;101375.77;5144963;56;1138373;-74
2021/06/02 15:26:51;;;;;;;6.05;2.98;;;;;;;22.73;35.86;101371.73;5144799;56;1138590;-76
2021/06/02 15:31:58;;;;;;;3.00;2.75;;;;;;;22.70;36.24;101370.22;5145103;56;1138561;-76
2021/06/02 15:37:05;;;;;;;4.65;3.42;;;;;;;22.69;36.58;101369.89;5145130;56;1138539;-76
2021/06/02 15:42:13;;;;;;;10.35;6.78;;;;;;;22.65;35.40;101372.60;5144976;56;1138738;-74
2021/06/02 15:47:21;;;;;;;8.28;2.90;;;;;;;22.57;36.30;101369.13;5144611;56;1140837;-75
2021/06/02 15:52:40;;;;;;;14.57;3.80;;;;;;;22.49;36.26;101375.88;5145275;56;1138691;-76
2021/06/02 15:58:02;;;;;;;5.15;4.62;;;;;;;22.33;35.94;101367.36;5141769;56;1140601;-73
2021/06/02 16:03:10;;;;;;;7.37;2.72;;;;;;;22.31;36.32;101374.78;5140069;56;1138857;-75
2021/06/02 16:08:16;;;;;;;7.47;3.20;;;;;;;22.32;37.04;101377.30;5140565;56;1138946;-75
2021/06/02 16:13:23;;;;;;;4.87;2.12;;;;;;;22.42;35.61;101370.38;5140888;56;1138655;-73
2021/06/02 16:18:28;;;;;;;7.17;1.90;;;;;;;22.48;35.96;101372.34;5134311;56;1138729;-76
2021/06/02 16:23:35;;;;;;;7.17;2.47;;;;;;;22.48;35.66;101369.66;5077426;56;1138940;-73
2021/06/02 16:28:50;;;;;;;8.20;2.40;;;;;;;22.53;35.40;101371.83;5056982;57;1139293;-76
2021/06/02 16:34:02;;;;;;;3.62;1.82;;;;;;;22.53;35.10;101380.76;5056249;57;1138934;-74
2021/06/02 16:39:08;;;;;;;4.55;2.87;;;;;;;22.46;34.03;101377.07;5056537;57;1138913;-77
2021/06/02 16:44:19;;;;;;;3.80;3.42;;;;;;;22.39;34.77;101374.25;5084909;56;1139154;-75
2021/06/02 16:49:25;;;;;;;5.35;3.67;;;;;;;22.39;35.29;101377.45;5087455;56;1139294;-76
2021/06/02 16:54:34;;;;;;;5.03;1.90;;;;;;;22.32;34.05;101380.00;5087832;56;1139402;-75
2021/06/02 16:59:42;;;;;;;7.75;1.92;;;;;;;22.31;34.45;101379.66;5091844;56;1139456;-77
2021/06/02 17:04:50;;;;;;;5.50;2.30;;;;;;;22.31;35.17;101385.56;5090694;56;1139134;-75
2021/06/02 17:09:58;;;;;;;7.75;2.25;;;;;;;22.31;35.79;101386.91;5087116;56;1139002;-74
2021/06/02 17:15:07;;;;;;;3.08;2.02;;;;;;;22.32;35.35;101388.59;5086981;56;1139016;-77
2021/06/02 17:20:15;;;;;;;8.03;1.95;;;;;;;22.29;35.24;101390.31;5056862;56;1139094;-77
2021/06/02 17:25:21;;;;;;;5.25;2.05;;;;;;;22.25;35.19;101396.55;4951120;57;1138635;-77
2021/06/02 17:30:28;;;;;;;3.02;2.48;;;;;;;22.18;35.54;101393.36;5090673;56;1139046;-77
2021/06/02 17:35:34;;;;;;;5.90;2.72;;;;;;;22.09;35.69;101393.91;5087913;56;1138960;-77
2021/06/02 17:40:40;;;;;;;6.03;2.83;;;;;;;22.02;35.63;101402.33;5087305;56;1139007;-77
2021/06/02 17:45:46;;;;;;;10.20;3.58;;;;;;;21.91;35.60;101408.05;5093948;56;1138900;-77
2021/06/02 17:50:57;;;;;;;4.78;2.67;;;;;;;21.81;36.08;101412.28;5069648;56;1140923;-80
2021/06/02 17:56:04;;;;;;;4.67;2.98;;;;;;;21.71;36.30;101425.06;5088493;56;1139407;-78
2021/06/02 18:01:13;;;;;;;10.50;2.47;;;;;;;21.60;36.68;101426.25;5086300;56;1139427;-77
2021/06/02 18:06:21;;;;;;;6.83;2.22;;;;;;;21.54;37.51;101424.22;5089783;56;1141237;-75
2021/06/02 18:11:33;;;;;;;5.05;3.22;;;;;;;21.49;38.03;101429.80;5114865;56;1139158;-74
2021/06/02 18:16:40;;;;;;;11.55;3.40;;;;;;;21.44;38.04;101432.14;5109284;56;1139144;-75
2021/06/02 18:21:51;;;;;;;11.70;4.47;;;;;;;21.36;38.55;101442.41;5111636;56;1140521;-78
2021/06/02 18:26:59;;;;;;;9.65;4.45;;;;;;;21.29;39.05;101441.38;5113982;55;1140535;-77
2021/06/02 18:32:07;;;;;;;16.27;4.47;;;;;;;21.24;39.76;101448.59;5109645;56;1138535;-75
2021/06/02 18:37:15;;;;;;;20.02;3.87;;;;;;;21.17;39.97;101454.28;5114851;56;1140727;-76
2021/06/02 18:42:22;;;;;;;11.57;4.17;;;;;;;21.06;40.21;101459.98;5111313;56;1140422;-77
2021/06/02 18:47:28;;;;;;;9.78;3.20;;;;;;;20.92;40.53;101462.80;5110252;56;1141164;-79
2021/06/02 18:52:35;;;;;;;12.70;3.55;;;;;;;20.81;40.82;101471.14;5111443;56;1138501;-77
2021/06/02 18:57:41;;;;;;;17.87;3.83;;;;;;;20.71;41.19;101473.13;5113892;56;1140486;-78
2021/06/02 19:02:47;;;;;;;4.97;3.02;;;;;;;20.64;41.25;101480.14;5112760;56;1140452;-77
2021/06/02 19:07:53;;;;;;;3.85;2.52;;;;;;;20.56;41.04;101493.55;5113055;56;1139098;-75
2021/06/02 19:13:00;;;;;;;6.15;2.65;;;;;;;20.46;40.93;101503.59;5123184;56;1138612;-74
2021/06/02 19:18:06;;;;;;;7.28;2.90;;;;;;;20.36;41.28;101510.39;5064690;56;1138549;-76
2021/06/02 19:23:12;;;;;;;7.28;2.75;;;;;;;20.29;41.61;101526.79;5063402;57;1138552;-77
2021/06/02 19:28:19;;;;;;;7.58;3.02;;;;;;;20.22;41.69;101525.72;5061884;57;1138638;-74
2021/06/02 19:33:25;;;;;;;3.90;2.85;;;;;;;20.13;41.85;101536.06;5064181;57;1138913;-77
2021/06/02 19:38:31;;;;;;;9.95;3.08;;;;;;;19.99;42.05;101528.92;5051879;57;1139085;-74
2021/06/02 19:43:37;;;;;;;10.53;3.80;;;;;;;19.88;42.18;101524.27;5118179;56;1139217;-76
2021/06/02 19:48:43;;;;;;;6.20;3.27;;;;;;;19.76;42.50;101531.72;5071253;56;1141218;-75
2021/06/02 19:53:49;;;;;;;6.85;3.50;;;;;;;19.61;42.61;101534.10;5061940;57;1138898;-73
2021/06/02 19:58:55;;;;;;;10.72;4.10;;;;;;;19.57;42.90;101541.26;5067363;56;1138985;-75
2021/06/02 20:04:01;;;;;;;9.55;3.25;;;;;;;19.47;43.23;101544.48;5094537;56;1141073;-74
2021/06/02 20:09:06;;;;;;;17.50;4.05;;;;;;;19.38;43.43;101553.45;5061563;57;1139047;-74
2021/06/02 20:14:12;;;;;;;18.20;5.72;;;;;;;19.27;43.79;101556.67;5051180;56;1141027;-74
2021/06/02 20:19:18;;;;;;;10.88;5.53;;;;;;;19.20;44.08;101556.94;5051323;56;1140972;-75
2021/06/02 20:24:24;;;;;;;10.70;4.83;;;;;;;19.13;44.51;101560.36;5056439;56;1140973;-76
2021/06/02 20:34:39;;;;;;;12.28;4.42;;;;;;;18.92;44.94;101559.27;5057183;56;1141281;-74
2021/06/02 20:39:46;;;;;;;10.30;4.97;;;;;;;18.82;45.31;101564.66;5051144;56;1141503;-76
2021/06/02 20:44:51;;;;;;;11.22;4.82;;;;;;;18.75;45.70;101566.74;5051109;56;1141220;-76
2021/06/02 20:50:02;;;;;;;10.82;4.15;;;;;;;18.68;45.90;101563.79;5067810;56;1140886;-77
2021/06/02 20:55:09;;;;;;;17.24;4.52;;;;;;;18.64;46.13;101566.93;5073296;57;1140687;-74
2021/06/02 21:00:19;;;;;;;6.22;3.40;;;;;;;18.56;46.38;101564.44;5069656;56;1140655;-76
2021/06/02 21:05:26;;;;;;;9.37;4.27;;;;;;;18.47;46.34;101566.66;5064790;56;1259899;-76
2021/06/02 21:10:32;;;;;;;9.56;4.50;;;;;;;18.40;46.59;101566.02;5082803;57;1138648;-75
2021/06/02 21:15:38;;;;;;;7.20;4.57;;;;;;;18.31;46.61;101573.59;5088510;56;1141286;-77
2021/06/02 21:20:44;;;;;;;11.08;4.12;;;;;;;18.24;46.85;101573.31;5066141;56;1138849;-74
2021/06/02 21:25:51;;;;;;;7.83;3.53;;;;;;;18.16;47.01;101572.70;5062882;56;1140636;-77
2021/06/02 21:30:57;;;;;;;9.13;4.57;;;;;;;18.01;47.28;101568.76;5062357;56;1138972;-78
2021/06/02 21:36:04;;;;;;;9.17;3.87;;;;;;;18.01;47.63;101578.63;5062878;56;1139251;-77
2021/06/02 21:41:10;;;;;;;6.30;4.00;;;;;;;17.93;48.00;101584.17;5062660;56;1138871;-74
2021/06/02 21:46:15;;;;;;;9.83;4.00;;;;;;;17.83;48.29;101578.47;5062924;57;1139001;-80
2021/06/02 21:51:22;;;;;;;8.73;4.93;;;;;;;17.72;48.75;101580.77;5062857;56;1138919;-77
2021/06/02 21:56:29;;;;;;;6.03;4.17;;;;;;;17.59;48.99;101584.17;5062851;56;1138958;-76
2021/06/02 22:01:40;;;;;;;12.98;3.98;;;;;;;17.50;49.37;101585.86;5062876;56;1138947;-75
2021/06/02 22:06:46;;;;;;;12.28;4.40;;;;;;;17.29;49.80;101597.13;5063333;56;1140943;-76
2021/06/02 22:11:53;;;;;;;15.00;4.40;;;;;;;17.01;50.14;101596.53;5062744;56;1140967;-71
2021/06/02 22:17:00;;;;;;;6.20;3.90;;;;;;;16.86;50.56;101595.55;5061006;57;1140711;-76
2021/06/02 22:22:06;;;;;;;7.57;3.50;;;;;;;16.68;50.74;101606.48;5084966;56;1138589;-78
2021/06/02 22:27:12;;;;;;;5.53;4.20;;;;;;;16.60;51.00;101606.28;5062789;57;1138457;-77
2021/06/02 22:32:21;;;;;;;8.80;4.13;;;;;;;16.60;51.30;101612.96;5087614;56;1138752;-75
2021/06/02 22:37:27;;;;;;;4.73;4.33;;;;;;;16.63;51.40;101616.75;5142873;56;1255707;-77
2021/06/02 22:42:33;;;;;;;9.94;5.54;;;;;;;16.58;51.54;101614.91;5145185;56;1139007;-73
2021/06/02 22:47:38;;;;;;;12.65;5.22;;;;;;;16.46;51.78;101612.81;5145231;56;1138465;-76
2021/06/02 22:52:45;;;;;;;13.40;4.75;;;;;;;16.20;51.94;101612.80;5145019;56;1140631;-75
2021/06/02 22:57:51;;;;;;;8.90;4.73;;;;;;;16.04;52.93;101599.89;5144843;56;1140673;-76
2021/06/02 23:02:58;;;;;;;7.80;4.20;;;;;;;15.98;53.21;101611.09;5144932;56;1138755;-74
2021/06/02 23:08:06;;;;;;;11.27;4.33;;;;;;;15.85;53.32;101610.42;5145073;56;1138785;-75
2021/06/02 23:13:13;;;;;;;5.77;4.20;;;;;;;15.86;53.68;101617.45;5144646;56;1140703;-75
2021/06/02 23:18:19;;;;;;;8.53;4.73;;;;;;;15.82;53.73;101612.00;5144965;56;1138624;-75
2021/06/02 23:23:24;;;;;;;4.65;4.05;;;;;;;15.81;54.17;101614.30;5144614;56;1138553;-76
2021/06/02 23:28:30;;;;;;;6.83;4.80;;;;;;;15.77;54.23;101614.19;5145088;56;1138627;-78
2021/06/02 23:33:37;;;;;;;13.80;7.30;;;;;;;15.72;54.49;101621.25;5145281;56;1139252;-74
2021/06/02 23:38:43;;;;;;;9.33;5.87;;;;;;;15.60;54.62;101615.56;5145126;56;1150361;-76
2021/06/02 23:43:49;;;;;;;8.13;5.17;;;;;;;15.49;54.86;101621.73;5144698;56;1138677;-75
2021/06/02 23:48:55;;;;;;;9.13;5.43;;;;;;;15.30;54.73;101636.66;5145044;56;1138422;-77
2021/06/02 23:54:01;;;;;;;11.10;5.67;;;;;;;15.08;55.13;101635.71;5145617;56;1138399;-76
2021/06/02 23:59:07;;;;;;;24.90;10.30;;;;;;;15.11;55.76;101628.81;5145482;56;1141130;-74
